Time;durP1;ratioP1;P1;durP2;ratioP2;P2;SDS_P1;SDS_P2;PMS_P1;PMS_P2;Temp;Humidity;BMP_temperature;BMP_pressure;BME280_temperature;BME280_humidity;BME280_pressure;Samples;Min_cycle;Max_cycle;Signal;HPM_P1;HPM_P2
2021/12/29 00:00:43;;;;;;;;;;;15.60;45.50;;;;;;5093485;28;19912;-62
2021/12/29 00:03:09;;;;;;;;;;;15.60;45.40;;;;;;5058663;28;19958;-61
2021/12/29 00:05:35;;;;;;;;;;;15.60;45.50;;;;;;5093573;28;19908;-61
2021/12/29 00:08:01;;;;;;;;;;;15.60;45.60;;;;;;5093801;28;19951;-61
2021/12/29 00:10:26;;;;;;;;;;;15.60;45.40;;;;;;5093456;28;19908;-61
2021/12/29 00:12:53;;;;;;;;;;;15.50;45.60;;;;;;5093416;28;20378;-61
2021/12/29 00:15:20;;;;;;;;;;;15.60;45.50;;;;;;5093616;28;19986;-61
2021/12/29 00:17:46;;;;;;;;;;;15.50;45.50;;;;;;5093423;28;19961;-61
2021/12/29 00:20:14;;;;;;;;;;;15.60;45.60;;;;;;5093714;28;19954;-62
2021/12/29 00:22:39;;;;;;;;;;;15.50;45.60;;;;;;5075218;28;19908;-61
2021/12/29 00:25:05;;;;;;;;;;;15.60;45.60;;;;;;5093361;28;20253;-62
2021/12/29 00:27:31;;;;;;;;;;;15.60;45.50;;;;;;5093207;28;19908;-62
2021/12/29 00:29:56;;;;;;;;;;;15.60;45.50;;;;;;5075132;28;19908;-62
2021/12/29 00:32:22;;;;;;;;;;;15.60;45.60;;;;;;5093510;28;19937;-61
2021/12/29 00:34:47;;;;;;;;;;;15.60;45.70;;;;;;5093308;28;20421;-61
2021/12/29 00:37:13;;;;;;;;;;;15.60;45.70;;;;;;5093205;28;19945;-61
2021/12/29 00:39:38;;;;;;;;;;;15.60;45.60;;;;;;5093189;28;19908;-61
2021/12/29 00:42:04;;;;;;;;;;;15.60;45.70;;;;;;5093148;28;19933;-61
2021/12/29 00:44:32;;;;;;;;;;;15.60;45.60;;;;;;5093045;28;19916;-61
2021/12/29 00:46:57;;;;;;;;;;;15.60;45.60;;;;;;5093303;28;20002;-61
2021/12/29 00:49:30;;;;;;;;;;;15.50;45.70;;;;;;5093163;28;19966;-60
2021/12/29 00:51:55;;;;;;;;;;;15.60;45.70;;;;;;5093433;28;19977;-61
2021/12/29 00:54:21;;;;;;;;;;;15.60;45.70;;;;;;5093055;28;19971;-61
2021/12/29 00:56:47;;;;;;;;;;;15.60;45.70;;;;;;5093087;28;20326;-61
2021/12/29 00:59:13;;;;;;;;;;;15.60;45.70;;;;;;5093097;28;19931;-61
2021/12/29 01:01:38;;;;;;;;;;;15.60;45.70;;;;;;5092978;28;20348;-61
2021/12/29 01:04:04;;;;;;;;;;;15.60;45.70;;;;;;5092956;28;19931;-62
2021/12/29 01:06:30;;;;;;;;;;;15.60;45.70;;;;;;5093041;28;19915;-61
2021/12/29 01:08:55;;;;;;;;;;;15.60;45.70;;;;;;5093978;28;19947;-62
2021/12/29 01:11:22;;;;;;;;;;;15.60;45.70;;;;;;5096971;28;19923;-61
2021/12/29 01:13:49;;;;;;;;;;;15.60;45.70;;;;;;5096722;28;20262;-61
2021/12/29 01:16:36;;;;;;;;;;;15.60;45.70;;;;;;5096577;28;19955;-60
2021/12/29 01:19:06;;;;;;;;;;;15.60;45.80;;;;;;5081267;28;19908;-60
2021/12/29 01:21:33;;;;;;;;;;;15.60;45.80;;;;;;5096756;28;19911;-60
2021/12/29 01:23:59;;;;;;;;;;;15.60;45.70;;;;;;5096304;28;20390;-60
2021/12/29 01:26:24;;;;;;;;;;;15.60;45.70;;;;;;5096585;28;19912;-60
2021/12/29 01:28:50;;;;;;;;;;;15.60;45.80;;;;;;5078219;28;19980;-61
2021/12/29 01:31:15;;;;;;;;;;;15.60;45.80;;;;;;5096310;28;19908;-61
2021/12/29 01:33:41;;;;;;;;;;;15.60;45.80;;;;;;5096592;28;19908;-61
2021/12/29 01:36:06;;;;;;;;;;;15.60;45.80;;;;;;5096216;28;19908;-61
2021/12/29 01:38:31;;;;;;;;;;;15.60;45.80;;;;;;5096249;28;20275;-61
2021/12/29 01:40:57;;;;;;;;;;;15.60;45.90;;;;;;5096455;28;19908;-61
2021/12/29 01:43:22;;;;;;;;;;;15.60;45.80;;;;;;5095966;28;19971;-61
2021/12/29 01:45:48;;;;;;;;;;;15.60;45.90;;;;;;5096114;28;19953;-61
2021/12/29 01:48:15;;;;;;;;;;;15.60;45.90;;;;;;5095929;28;19908;-61
2021/12/29 01:50:41;;;;;;;;;;;15.60;45.90;;;;;;5095970;28;19987;-60
2021/12/29 01:53:12;;;;;;;;;;;15.60;45.90;;;;;;5096099;28;19942;-61
2021/12/29 01:55:38;;;;;;;;;;;15.60;45.90;;;;;;5096142;28;19916;-61
2021/12/29 01:58:04;;;;;;;;;;;15.60;45.90;;;;;;5095656;28;20383;-61
2021/12/29 02:00:31;;;;;;;;;;;15.60;46.00;;;;;;5095848;28;19908;-61
2021/12/29 02:02:57;;;;;;;;;;;15.60;46.00;;;;;;5095857;28;19922;-61
2021/12/29 02:05:23;;;;;;;;;;;15.60;46.00;;;;;;5095656;28;20015;-61
2021/12/29 02:07:48;;;;;;;;;;;15.60;46.00;;;;;;5095675;28;20279;-61
2021/12/29 02:10:15;;;;;;;;;;;15.60;46.00;;;;;;5095918;28;19919;-61
2021/12/29 02:12:41;;;;;;;;;;;15.60;46.10;;;;;;5095623;28;20290;-61
2021/12/29 02:15:07;;;;;;;;;;;15.60;46.10;;;;;;5095821;28;20355;-61
2021/12/29 02:17:33;;;;;;;;;;;15.60;46.00;;;;;;5095395;28;19912;-61
2021/12/29 02:20:08;;;;;;;;;;;15.60;46.00;;;;;;5095562;28;19915;-61
2021/12/29 02:22:43;;;;;;;;;;;15.60;46.00;;;;;;5095674;28;20010;-61
2021/12/29 02:27:42;;;;;;;;;;;15.60;46.10;;;;;;5095469;28;19908;-61
2021/12/29 02:30:08;;;;;;;;;;;15.60;46.10;;;;;;5095203;28;20282;-61
2021/12/29 02:32:33;;;;;;;;;;;15.60;46.10;;;;;;5077034;28;20010;-61
2021/12/29 02:34:59;;;;;;;;;;;15.60;46.10;;;;;;5095140;28;19909;-61
2021/12/29 02:37:24;;;;;;;;;;;15.60;46.20;;;;;;5095016;28;19962;-61
2021/12/29 02:39:51;;;;;;;;;;;15.60;46.10;;;;;;5095314;28;19908;-61
2021/12/29 02:42:19;;;;;;;;;;;15.60;46.20;;;;;;5095045;28;19915;-61
2021/12/29 02:44:46;;;;;;;;;;;15.60;46.10;;;;;;5094848;28;19919;-61
2021/12/29 02:47:11;;;;;;;;;;;15.60;46.20;;;;;;5095107;28;19908;-61
2021/12/29 02:49:37;;;;;;;;;;;15.60;46.10;;;;;;5095081;28;20336;-60
2021/12/29 02:52:03;;;;;;;;;;;15.60;46.20;;;;;;5094772;28;19914;-61
2021/12/29 02:54:28;;;;;;;;;;;15.60;46.20;;;;;;5094970;28;19915;-61
2021/12/29 02:56:56;;;;;;;;;;;15.60;46.20;;;;;;5094545;28;19916;-61
2021/12/29 02:59:22;;;;;;;;;;;15.60;46.20;;;;;;5094632;28;19908;-61
2021/12/29 03:01:48;;;;;;;;;;;15.60;46.20;;;;;;5094555;28;19908;-61
2021/12/29 03:04:14;;;;;;;;;;;15.60;46.20;;;;;;5094667;28;19920;-61
2021/12/29 03:06:40;;;;;;;;;;;15.60;46.10;;;;;;5094638;28;19914;-61
2021/12/29 03:09:06;;;;;;;;;;;15.60;46.30;;;;;;5094557;28;19999;-61
2021/12/29 03:11:32;;;;;;;;;;;15.60;46.20;;;;;;5094469;28;19991;-61
2021/12/29 03:13:57;;;;;;;;;;;15.60;46.20;;;;;;5094300;28;20003;-61
2021/12/29 03:16:24;;;;;;;;;;;15.60;46.20;;;;;;5094377;28;19917;-60
2021/12/29 03:18:49;;;;;;;;;;;15.60;46.20;;;;;;5094494;28;20363;-61
2021/12/29 03:21:15;;;;;;;;;;;15.60;46.30;;;;;;5094397;28;19914;-61
2021/12/29 03:23:40;;;;;;;;;;;15.60;46.20;;;;;;5094523;28;20359;-61
2021/12/29 03:26:06;;;;;;;;;;;15.60;46.30;;;;;;5094276;28;20310;-61
2021/12/29 03:28:32;;;;;;;;;;;15.60;46.30;;;;;;5094152;28;19915;-61
2021/12/29 03:30:58;;;;;;;;;;;15.60;46.20;;;;;;5093974;28;20332;-61
2021/12/29 03:33:25;;;;;;;;;;;15.60;46.30;;;;;;5093848;28;20505;-61
2021/12/29 03:35:52;;;;;;;;;;;15.60;46.20;;;;;;5094142;28;20326;-61
2021/12/29 03:38:20;;;;;;;;;;;15.60;46.30;;;;;;5094009;28;20382;-61
2021/12/29 03:40:46;;;;;;;;;;;15.60;46.30;;;;;;5094238;28;19915;-62
2021/12/29 03:43:12;;;;;;;;;;;15.60;46.40;;;;;;5094213;28;19909;-61
2021/12/29 03:45:39;;;;;;;;;;;15.60;46.30;;;;;;5094007;28;19908;-61
2021/12/29 03:48:04;;;;;;;;;;;15.60;46.30;;;;;;5093966;28;19919;-62
2021/12/29 03:50:30;;;;;;;;;;;15.60;46.40;;;;;;5094063;28;19908;-61
2021/12/29 03:52:55;;;;;;;;;;;15.60;46.30;;;;;;5093851;28;20443;-61
2021/12/29 03:55:21;;;;;;;;;;;15.60;46.40;;;;;;5093902;28;19912;-61
2021/12/29 03:57:46;;;;;;;;;;;15.60;46.30;;;;;;5093371;28;19920;-61
2021/12/29 04:00:13;;;;;;;;;;;15.60;46.40;;;;;;5093962;28;20021;-60
2021/12/29 04:02:39;;;;;;;;;;;15.60;46.30;;;;;;5093815;28;19908;-60
2021/12/29 04:05:05;;;;;;;;;;;15.60;46.40;;;;;;5093776;28;20272;-60
2021/12/29 04:07:31;;;;;;;;;;;15.60;46.50;;;;;;5093569;28;19909;-61
2021/12/29 04:09:57;;;;;;;;;;;15.60;46.30;;;;;;5093716;28;19908;-61
2021/12/29 04:12:22;;;;;;;;;;;15.60;46.50;;;;;;5093505;28;20315;-61
2021/12/29 04:14:48;;;;;;;;;;;15.60;46.40;;;;;;5093830;28;19908;-61
2021/12/29 04:17:15;;;;;;;;;;;15.70;46.50;;;;;;5093816;28;19914;-60
2021/12/29 04:20:54;;;;;;;;;;;15.60;46.40;;;;;;5093579;28;20360;-62
2021/12/29 04:22:27;;;;;;;;;;;15.60;46.30;;;;;;5093430;28;19908;-62
2021/12/29 04:24:53;;;;;;;;;;;15.60;46.40;;;;;;5093851;28;19923;-59
2021/12/29 04:27:21;;;;;;;;;;;15.60;46.50;;;;;;5093473;28;20355;-61
2021/12/29 04:29:47;;;;;;;;;;;15.60;46.40;;;;;;5093514;28;19908;-62
2021/12/29 04:32:12;;;;;;;;;;;15.60;46.40;;;;;;5093495;28;19908;-62
2021/12/29 04:34:38;;;;;;;;;;;15.60;46.50;;;;;;5093373;28;19908;-61
2021/12/29 04:37:03;;;;;;;;;;;15.60;46.50;;;;;;5093132;28;19954;-62
2021/12/29 04:39:29;;;;;;;;;;;15.70;46.50;;;;;;5093274;28;19916;-62
2021/12/29 04:41:54;;;;;;;;;;;15.60;46.50;;;;;;5093655;28;20351;-61
2021/12/29 04:44:20;;;;;;;;;;;15.60;46.50;;;;;;5096782;28;20015;-62
2021/12/29 04:46:46;;;;;;;;;;;15.60;46.50;;;;;;5097553;28;19915;-61
2021/12/29 04:49:14;;;;;;;;;;;15.60;46.50;;;;;;5097477;28;19908;-61
2021/12/29 04:51:47;;;;;;;;;;;15.60;46.50;;;;;;5097200;28;19908;-61
2021/12/29 04:54:13;;;;;;;;;;;15.60;46.50;;;;;;5097279;28;19915;-61
2021/12/29 04:56:38;;;;;;;;;;;15.60;46.60;;;;;;5097005;28;20010;-60
2021/12/29 04:59:04;;;;;;;;;;;15.60;46.50;;;;;;5097136;28;20416;-61
2021/12/29 05:01:30;;;;;;;;;;;15.60;46.60;;;;;;5097029;28;20006;-61
2021/12/29 05:03:55;;;;;;;;;;;15.60;46.60;;;;;;5097162;28;19916;-61
2021/12/29 05:09:05;;;;;;;;;;;15.60;46.60;;;;;;5097016;28;19919;-61
2021/12/29 05:11:30;;;;;;;;;;;15.60;46.60;;;;;;5097202;28;20301;-60
2021/12/29 05:13:56;;;;;;;;;;;15.60;46.60;;;;;;5097089;28;20285;-61
2021/12/29 05:16:26;;;;;;;;;;;15.70;46.60;;;;;;5097152;28;20006;-60
2021/12/29 05:18:51;;;;;;;;;;;15.70;46.60;;;;;;5078573;28;19955;-61
2021/12/29 05:21:17;;;;;;;;;;;15.60;46.60;;;;;;5096772;28;20255;-61
2021/12/29 05:23:42;;;;;;;;;;;15.60;46.50;;;;;;5096646;28;19977;-61
2021/12/29 05:26:07;;;;;;;;;;;15.70;46.60;;;;;;5096708;28;19940;-61
2021/12/29 05:28:33;;;;;;;;;;;15.70;46.60;;;;;;5096610;28;19908;-61
2021/12/29 05:30:58;;;;;;;;;;;15.70;46.60;;;;;;5096498;28;19969;-61
2021/12/29 05:33:24;;;;;;;;;;;15.70;46.70;;;;;;5096759;28;19912;-61
2021/12/29 05:35:49;;;;;;;;;;;15.70;46.60;;;;;;5078195;28;19915;-60
2021/12/29 05:38:15;;;;;;;;;;;15.70;46.60;;;;;;5096653;28;20252;-60
2021/12/29 05:40:40;;;;;;;;;;;15.70;46.60;;;;;;5096518;28;19915;-60
2021/12/29 05:43:06;;;;;;;;;;;15.70;46.60;;;;;;5096383;28;19917;-60
2021/12/29 05:45:31;;;;;;;;;;;15.70;46.70;;;;;;5096204;28;19916;-60
2021/12/29 05:47:57;;;;;;;;;;;15.70;46.60;;;;;;5078045;28;19915;-60
2021/12/29 05:50:24;;;;;;;;;;;15.70;46.70;;;;;;5096134;28;19912;-60
2021/12/29 05:52:50;;;;;;;;;;;15.70;46.60;;;;;;5096283;28;19908;-60
2021/12/29 05:55:15;;;;;;;;;;;15.70;46.60;;;;;;5095293;28;20267;-60
2021/12/29 05:57:41;;;;;;;;;;;15.70;46.60;;;;;;5095850;28;19921;-60
2021/12/29 06:00:08;;;;;;;;;;;15.70;46.60;;;;;;5095986;28;20011;-61
2021/12/29 06:02:33;;;;;;;;;;;15.70;46.70;;;;;;5095802;28;20287;-60
2021/12/29 06:04:59;;;;;;;;;;;15.70;46.70;;;;;;5096323;28;19920;-61
2021/12/29 06:07:24;;;;;;;;;;;15.60;46.60;;;;;;5096018;28;19912;-61
2021/12/29 06:09:50;;;;;;;;;;;15.60;46.60;;;;;;5095677;28;20275;-62
2021/12/29 06:12:15;;;;;;;;;;;15.70;46.70;;;;;;5095902;28;19950;-61
2021/12/29 06:14:42;;;;;;;;;;;15.70;46.70;;;;;;5095752;28;19908;-60
2021/12/29 06:17:07;;;;;;;;;;;15.70;46.70;;;;;;5095618;28;20371;-60
2021/12/29 06:19:33;;;;;;;;;;;15.60;46.80;;;;;;5095530;28;19919;-61
2021/12/29 06:21:59;;;;;;;;;;;15.60;46.80;;;;;;5095832;28;20281;-61
2021/12/29 06:24:25;;;;;;;;;;;15.60;46.70;;;;;;5095397;28;20371;-60
2021/12/29 06:26:50;;;;;;;;;;;15.70;46.80;;;;;;5095422;28;19908;-60
2021/12/29 06:29:16;;;;;;;;;;;15.60;46.70;;;;;;5095415;28;19908;-61
2021/12/29 06:31:44;;;;;;;;;;;15.60;46.80;;;;;;5095381;28;20284;-61
2021/12/29 06:34:10;;;;;;;;;;;15.60;46.80;;;;;;5095425;28;19959;-61
2021/12/29 06:36:36;;;;;;;;;;;15.60;46.80;;;;;;5095212;28;20268;-61
2021/12/29 06:39:01;;;;;;;;;;;15.60;46.80;;;;;;5095147;28;20006;-61
2021/12/29 06:41:27;;;;;;;;;;;15.70;46.80;;;;;;5076967;28;19908;-61
2021/12/29 06:43:52;;;;;;;;;;;15.60;46.80;;;;;;5076802;28;19916;-61
2021/12/29 06:46:18;;;;;;;;;;;15.60;46.80;;;;;;5094979;28;19908;-62
2021/12/29 06:48:43;;;;;;;;;;;15.60;46.80;;;;;;5094950;28;19961;-61
2021/12/29 06:51:09;;;;;;;;;;;15.60;46.90;;;;;;5094858;28;19908;-61
2021/12/29 06:53:34;;;;;;;;;;;15.60;46.90;;;;;;5094791;28;19956;-61
2021/12/29 06:56:00;;;;;;;;;;;15.70;46.80;;;;;;5076516;28;19908;-62
2021/12/29 06:58:25;;;;;;;;;;;15.60;46.90;;;;;;5094534;28;20402;-61
2021/12/29 07:00:51;;;;;;;;;;;15.60;46.90;;;;;;5094929;28;19908;-61
2021/12/29 07:03:16;;;;;;;;;;;15.60;46.90;;;;;;5094490;28;19916;-61
2021/12/29 07:05:42;;;;;;;;;;;15.60;46.90;;;;;;5094075;28;19908;-61
2021/12/29 07:08:07;;;;;;;;;;;15.60;46.80;;;;;;5094046;28;20252;-61
2021/12/29 07:10:33;;;;;;;;;;;15.60;46.90;;;;;;5094552;28;19935;-61
2021/12/29 07:12:58;;;;;;;;;;;15.60;46.80;;;;;;5094393;28;20003;-61
2021/12/29 07:15:24;;;;;;;;;;;15.60;46.90;;;;;;5094444;28;19908;-61
2021/12/29 07:17:49;;;;;;;;;;;15.70;46.90;;;;;;5094308;28;20316;-61
2021/12/29 07:20:15;;;;;;;;;;;15.60;46.80;;;;;;5094409;28;19935;-61
2021/12/29 07:22:40;;;;;;;;;;;15.60;46.90;;;;;;5094400;28;19908;-61
2021/12/29 07:25:06;;;;;;;;;;;15.60;46.90;;;;;;5094209;28;19959;-61
2021/12/29 07:27:31;;;;;;;;;;;15.60;46.80;;;;;;5094473;28;19908;-61
2021/12/29 07:29:57;;;;;;;;;;;15.60;47.00;;;;;;5094068;28;19908;-61
2021/12/29 07:32:22;;;;;;;;;;;15.60;47.00;;;;;;5094263;28;19908;-61
2021/12/29 07:34:48;;;;;;;;;;;15.60;46.90;;;;;;5094109;28;20062;-61
2021/12/29 07:37:14;;;;;;;;;;;15.60;46.90;;;;;;5075843;28;19916;-61
2021/12/29 07:39:40;;;;;;;;;;;15.60;47.00;;;;;;5094074;28;19915;-62
2021/12/29 07:42:06;;;;;;;;;;;15.60;47.00;;;;;;5094048;28;19908;-61
2021/12/29 07:44:31;;;;;;;;;;;15.60;47.00;;;;;;5075494;28;19916;-61
2021/12/29 07:46:59;;;;;;;;;;;15.60;47.00;;;;;;5094187;28;19908;-60
2021/12/29 07:49:25;;;;;;;;;;;15.60;47.00;;;;;;5093876;28;20484;-60
2021/12/29 07:51:50;;;;;;;;;;;15.60;47.10;;;;;;5094145;28;20248;-60
2021/12/29 07:54:16;;;;;;;;;;;15.60;47.10;;;;;;5093832;28;19947;-60
2021/12/29 07:56:42;;;;;;;;;;;15.60;47.10;;;;;;5093649;28;19915;-62
2021/12/29 07:59:07;;;;;;;;;;;15.60;47.00;;;;;;5093790;28;19912;-60
2021/12/29 08:01:33;;;;;;;;;;;15.60;47.10;;;;;;5093695;28;20383;-61
2021/12/29 08:03:58;;;;;;;;;;;15.60;47.10;;;;;;5093903;28;19916;-60
2021/12/29 08:06:24;;;;;;;;;;;15.60;47.00;;;;;;5093545;28;19916;-61
2021/12/29 08:08:49;;;;;;;;;;;15.60;47.10;;;;;;5075471;28;19908;-60
2021/12/29 08:11:16;;;;;;;;;;;15.60;47.10;;;;;;5093631;28;19915;-60
2021/12/29 08:13:42;;;;;;;;;;;15.60;47.00;;;;;;5093469;28;19908;-61
2021/12/29 08:16:08;;;;;;;;;;;15.60;47.00;;;;;;5093493;28;19908;-61
2021/12/29 08:18:33;;;;;;;;;;;15.60;47.10;;;;;;5093048;28;20344;-61
2021/12/29 08:20:59;;;;;;;;;;;15.70;47.10;;;;;;5093506;28;19915;-61
2021/12/29 08:23:24;;;;;;;;;;;15.60;47.10;;;;;;5093424;28;20359;-61
2021/12/29 08:25:50;;;;;;;;;;;15.60;47.00;;;;;;5093659;28;20370;-61
2021/12/29 08:28:15;;;;;;;;;;;15.60;47.00;;;;;;5093388;28;19961;-61
2021/12/29 08:30:41;;;;;;;;;;;15.60;47.20;;;;;;5093365;28;20321;-60
2021/12/29 08:33:06;;;;;;;;;;;15.60;47.20;;;;;;5093359;28;20410;-61
2021/12/29 08:35:32;;;;;;;;;;;15.60;47.10;;;;;;5093446;28;19915;-61
2021/12/29 08:37:58;;;;;;;;;;;15.60;47.10;;;;;;5093244;28;19908;-61
2021/12/29 08:40:25;;;;;;;;;;;15.60;47.10;;;;;;5093227;28;19961;-60
2021/12/29 08:42:51;;;;;;;;;;;15.60;47.20;;;;;;5093158;28;19915;-60
2021/12/29 08:45:17;;;;;;;;;;;15.60;47.20;;;;;;5093016;28;20153;-60
2021/12/29 08:47:43;;;;;;;;;;;15.60;47.20;;;;;;5092858;28;19908;-60
2021/12/29 08:50:11;;;;;;;;;;;15.60;47.10;;;;;;5093106;28;19915;-60
2021/12/29 08:52:38;;;;;;;;;;;15.60;47.30;;;;;;5093184;28;19915;-60
2021/12/29 08:55:04;;;;;;;;;;;15.60;47.20;;;;;;5093116;28;19908;-61
2021/12/29 08:57:30;;;;;;;;;;;15.60;47.20;;;;;;5092885;28;20371;-60
2021/12/29 08:59:55;;;;;;;;;;;15.70;47.20;;;;;;5092652;28;19916;-60
2021/12/29 09:02:21;;;;;;;;;;;15.60;47.20;;;;;;5093084;28;19908;-60
2021/12/29 09:04:46;;;;;;;;;;;15.70;47.20;;;;;;5092914;28;19939;-61
2021/12/29 09:07:12;;;;;;;;;;;15.60;47.20;;;;;;5092798;28;19908;-61
2021/12/29 09:09:37;;;;;;;;;;;15.60;47.20;;;;;;5092843;28;20140;-60
2021/12/29 09:12:03;;;;;;;;;;;15.60;47.20;;;;;;5092936;28;19915;-60
2021/12/29 09:14:28;;;;;;;;;;;15.60;47.10;;;;;;5092739;28;19937;-60
2021/12/29 09:16:54;;;;;;;;;;;15.60;47.20;;;;;;5093021;28;19908;-60
2021/12/29 09:19:19;;;;;;;;;;;15.70;47.30;;;;;;5092956;28;20384;-60
2021/12/29 09:21:44;;;;;;;;;;;15.60;47.20;;;;;;5092756;28;19912;-60
2021/12/29 09:24:11;;;;;;;;;;;15.60;47.20;;;;;;5092928;28;19916;-60
2021/12/29 09:26:37;;;;;;;;;;;15.60;47.30;;;;;;5093043;28;19912;-60
2021/12/29 09:29:02;;;;;;;;;;;15.60;47.30;;;;;;5092899;28;20013;-61
2021/12/29 09:31:28;;;;;;;;;;;15.60;47.30;;;;;;5096296;28;20275;-61
2021/12/29 09:33:56;;;;;;;;;;;15.60;47.30;;;;;;5096243;28;19955;-60
2021/12/29 09:36:22;;;;;;;;;;;15.60;47.30;;;;;;5096322;28;19950;-60
2021/12/29 09:38:47;;;;;;;;;;;15.70;47.20;;;;;;5096175;28;20020;-61
2021/12/29 09:41:14;;;;;;;;;;;15.70;47.30;;;;;;5096262;28;20375;-60
2021/12/29 09:43:40;;;;;;;;;;;15.60;47.20;;;;;;5096040;28;19915;-60
2021/12/29 09:46:06;;;;;;;;;;;15.70;47.20;;;;;;5096337;28;19915;-61
2021/12/29 09:48:32;;;;;;;;;;;15.70;47.30;;;;;;5096097;28;19908;-61
2021/12/29 09:50:58;;;;;;;;;;;15.60;47.30;;;;;;5095970;28;19944;-62
2021/12/29 09:53:24;;;;;;;;;;;15.70;47.30;;;;;;5096018;28;19908;-62
2021/12/29 09:55:49;;;;;;;;;;;15.70;47.30;;;;;;5095909;28;19908;-62
2021/12/29 09:58:15;;;;;;;;;;;15.70;47.30;;;;;;5095757;28;20010;-61
2021/12/29 10:00:43;;;;;;;;;;;15.70;47.30;;;;;;5096034;28;20134;-61
2021/12/29 10:03:10;;;;;;;;;;;15.70;47.30;;;;;;5095787;28;19915;-61
2021/12/29 10:05:36;;;;;;;;;;;15.70;47.30;;;;;;5095734;28;20451;-61
2021/12/29 10:08:02;;;;;;;;;;;15.70;47.20;;;;;;5095720;28;19908;-62
2021/12/29 10:10:28;;;;;;;;;;;15.70;47.30;;;;;;5095505;28;20347;-61
2021/12/29 10:12:55;;;;;;;;;;;15.70;47.30;;;;;;5077415;28;19908;-61
2021/12/29 10:15:25;;;;;;;;;;;15.70;47.30;;;;;;5095377;28;20050;-61
2021/12/29 10:17:59;;;;;;;;;;;15.70;47.30;;;;;;5095501;28;19908;-62
2021/12/29 10:20:24;;;;;;;;;;;15.70;47.30;;;;;;5095778;28;19908;-61
2021/12/29 10:22:57;;;;;;;;;;;15.70;47.30;;;;;;5095357;28;19915;-59
2021/12/29 10:25:24;;;;;;;;;;;15.70;47.30;;;;;;5094902;28;19926;-61
2021/12/29 10:27:51;;;;;;;;;;;15.70;47.30;;;;;;5094876;28;19915;-61
2021/12/29 10:30:17;;;;;;;;;;;15.70;47.30;;;;;;5095328;28;19908;-61
2021/12/29 10:32:43;;;;;;;;;;;15.70;47.30;;;;;;5095196;28;19908;-61
2021/12/29 10:35:08;;;;;;;;;;;15.70;47.30;;;;;;5095047;28;20364;-62
2021/12/29 10:37:34;;;;;;;;;;;15.70;47.30;;;;;;5094572;28;19914;-62
2021/12/29 10:39:59;;;;;;;;;;;15.70;47.20;;;;;;5076836;28;19912;-61
2021/12/29 10:42:25;;;;;;;;;;;15.70;47.40;;;;;;5094534;28;19959;-62
2021/12/29 10:44:52;;;;;;;;;;;15.80;47.30;;;;;;5094989;28;19916;-61
2021/12/29 10:47:19;;;;;;;;;;;15.70;47.30;;;;;;5094793;28;19915;-61
2021/12/29 10:49:49;;;;;;;;;;;15.70;47.30;;;;;;5094835;28;19954;-63
2021/12/29 10:52:14;;;;;;;;;;;15.70;47.30;;;;;;5094668;28;19908;-62
2021/12/29 10:54:40;;;;;;;;;;;15.80;47.40;;;;;;5094600;28;19952;-61
2021/12/29 10:57:07;;;;;;;;;;;15.80;47.40;;;;;;5094634;28;19920;-62
2021/12/29 10:59:34;;;;;;;;;;;15.80;47.40;;;;;;5094669;28;19914;-61
2021/12/29 11:02:00;;;;;;;;;;;15.80;47.40;;;;;;5094517;28;19915;-61
2021/12/29 11:04:26;;;;;;;;;;;15.80;47.40;;;;;;5076098;28;19920;-61
2021/12/29 11:06:55;;;;;;;;;;;15.80;47.30;;;;;;5094158;28;19943;-61
2021/12/29 11:09:25;;;;;;;;;;;15.80;47.40;;;;;;5094602;28;20167;-62
2021/12/29 11:11:51;;;;;;;;;;;15.80;47.30;;;;;;5094281;28;19994;-61
2021/12/29 11:14:24;;;;;;;;;;;15.80;47.30;;;;;;5094320;28;19955;-61
2021/12/29 11:17:00;;;;;;;;;;;15.80;47.40;;;;;;5094521;28;19915;-62
2021/12/29 11:19:25;;;;;;;;;;;15.80;47.40;;;;;;5094454;28;19912;-61
2021/12/29 11:21:51;;;;;;;;;;;15.80;47.40;;;;;;5075978;28;20387;-62
2021/12/29 11:24:23;;;;;;;;;;;15.80;47.40;;;;;;5094148;28;19916;-62
2021/12/29 11:26:49;;;;;;;;;;;15.80;47.40;;;;;;5094218;28;20371;-61
2021/12/29 11:29:16;;;;;;;;;;;15.80;47.50;;;;;;5094106;28;19912;-61
2021/12/29 11:31:43;;;;;;;;;;;15.80;47.40;;;;;;5093940;28;19915;-62
2021/12/29 11:34:25;;;;;;;;;;;15.80;47.50;;;;;;5093961;28;19998;-61
2021/12/29 11:37:03;;;;;;;;;;;15.80;47.50;;;;;;5094123;28;19920;-61
2021/12/29 11:39:29;;;;;;;;;;;15.80;47.50;;;;;;5094156;28;19912;-62
2021/12/29 11:41:55;;;;;;;;;;;15.70;47.50;;;;;;5094064;28;19918;-61
2021/12/29 11:44:21;;;;;;;;;;;15.80;47.50;;;;;;5093720;28;19920;-62
2021/12/29 11:46:46;;;;;;;;;;;15.80;47.50;;;;;;5093952;28;19931;-61
2021/12/29 11:49:12;;;;;;;;;;;15.80;47.60;;;;;;5094073;28;20007;-61
2021/12/29 11:51:47;;;;;;;;;;;15.80;47.50;;;;;;5093664;28;20287;-62
2021/12/29 11:54:18;;;;;;;;;;;15.80;47.60;;;;;;5075239;28;20381;-61
2021/12/29 11:56:44;;;;;;;;;;;15.80;47.60;;;;;;5093388;28;19954;-61
2021/12/29 11:59:09;;;;;;;;;;;15.80;47.60;;;;;;5093624;28;19916;-62
2021/12/29 12:01:35;;;;;;;;;;;15.80;47.60;;;;;;5093456;28;20354;-61
2021/12/29 12:04:03;;;;;;;;;;;15.80;47.60;;;;;;5093501;28;19969;-62
2021/12/29 12:06:30;;;;;;;;;;;15.80;47.50;;;;;;5093568;28;19930;-62
2021/12/29 12:09:10;;;;;;;;;;;15.80;47.50;;;;;;5093766;28;19937;-62
2021/12/29 12:11:37;;;;;;;;;;;15.80;47.60;;;;;;5093721;28;19941;-62
2021/12/29 12:14:04;;;;;;;;;;;15.80;47.60;;;;;;5093771;28;19908;-61
2021/12/29 12:16:29;;;;;;;;;;;15.80;47.60;;;;;;5093716;28;19947;-59
2021/12/29 12:18:57;;;;;;;;;;;15.80;47.60;;;;;;5093361;28;19966;-62
2021/12/29 12:21:24;;;;;;;;;;;15.80;47.60;;;;;;5093567;28;19961;-62
2021/12/29 12:23:49;;;;;;;;;;;15.80;47.60;;;;;;5093511;28;19923;-60
2021/12/29 12:26:18;;;;;;;;;;;15.80;47.50;;;;;;5093360;28;19912;-61
2021/12/29 12:28:47;;;;;;;;;;;15.80;47.60;;;;;;5093361;28;19908;-62
2021/12/29 12:31:24;;;;;;;;;;;15.80;47.70;;;;;;5093089;28;20331;-61
2021/12/29 12:33:50;;;;;;;;;;;15.80;47.70;;;;;;5093106;28;20358;-61
2021/12/29 12:36:16;;;;;;;;;;;15.80;47.70;;;;;;5093253;28;19912;-62
2021/12/29 12:38:42;;;;;;;;;;;15.80;47.70;;;;;;5093193;28;20282;-62
2021/12/29 12:41:09;;;;;;;;;;;15.80;47.70;;;;;;5093189;28;19995;-62
2021/12/29 12:43:36;;;;;;;;;;;15.80;47.60;;;;;;5093124;28;19967;-62
2021/12/29 12:46:02;;;;;;;;;;;15.80;47.70;;;;;;5093217;28;20038;-61
2021/12/29 12:48:32;;;;;;;;;;;15.80;47.70;;;;;;5093133;28;20003;-61
2021/12/29 12:50:59;;;;;;;;;;;15.80;47.70;;;;;;5093213;28;20286;-62
2021/12/29 12:53:29;;;;;;;;;;;15.80;47.70;;;;;;5093136;28;19916;-61
2021/12/29 12:55:56;;;;;;;;;;;15.80;47.70;;;;;;5093141;28;19998;-62
2021/12/29 12:58:22;;;;;;;;;;;15.80;47.80;;;;;;5092642;28;20335;-61
2021/12/29 13:00:49;;;;;;;;;;;15.80;47.80;;;;;;5092929;28;19908;-62
2021/12/29 13:03:16;;;;;;;;;;;15.70;47.70;;;;;;5093071;28;19912;-61
2021/12/29 13:05:44;;;;;;;;;;;15.80;47.80;;;;;;5096790;28;19916;-62
2021/12/29 13:08:13;;;;;;;;;;;15.80;47.80;;;;;;5096925;28;19923;-61
2021/12/29 13:10:43;;;;;;;;;;;15.70;47.80;;;;;;5096770;28;19914;-61
2021/12/29 13:13:15;;;;;;;;;;;15.70;47.80;;;;;;5096508;28;20430;-59
2021/12/29 13:15:45;;;;;;;;;;;15.70;47.70;;;;;;5096705;28;20417;-61
2021/12/29 13:18:12;;;;;;;;;;;15.80;47.80;;;;;;5096757;28;19962;-61
2021/12/29 13:20:38;;;;;;;;;;;15.80;47.80;;;;;;5096866;28;19908;-62
2021/12/29 13:23:10;;;;;;;;;;;15.70;47.80;;;;;;5096389;28;20284;-62
2021/12/29 13:25:39;;;;;;;;;;;15.80;47.80;;;;;;5096611;28;19977;-62
2021/12/29 13:28:12;;;;;;;;;;;15.80;47.90;;;;;;5096724;28;20287;-62
2021/12/29 13:30:44;;;;;;;;;;;15.80;47.80;;;;;;5096303;28;19958;-59
2021/12/29 13:33:11;;;;;;;;;;;15.80;47.80;;;;;;5096524;28;20314;-59
2021/12/29 13:35:37;;;;;;;;;;;15.80;47.90;;;;;;5096596;28;19908;-59
2021/12/29 13:38:05;;;;;;;;;;;15.80;47.80;;;;;;5096270;28;20481;-60
2021/12/29 13:40:35;;;;;;;;;;;15.80;47.90;;;;;;5096219;28;19908;-59
2021/12/29 13:43:01;;;;;;;;;;;15.80;47.90;;;;;;5077973;28;20385;-59
2021/12/29 13:45:28;;;;;;;;;;;15.80;47.90;;;;;;5095796;28;19916;-59
2021/12/29 13:47:54;;;;;;;;;;;15.80;47.90;;;;;;5095996;28;20279;-59
2021/12/29 13:50:19;;;;;;;;;;;15.80;47.90;;;;;;5096006;28;19912;-59
2021/12/29 13:52:58;;;;;;;;;;;15.80;47.90;;;;;;5096238;28;19935;-59
2021/12/29 13:55:32;;;;;;;;;;;15.80;47.90;;;;;;5095648;28;19960;-60
2021/12/29 13:57:57;;;;;;;;;;;15.80;47.90;;;;;;5095656;28;19920;-60
2021/12/29 14:00:24;;;;;;;;;;;15.80;48.00;;;;;;5095778;28;19908;-62
2021/12/29 14:02:49;;;;;;;;;;;15.80;47.90;;;;;;5095752;28;20394;-59
2021/12/29 14:05:15;;;;;;;;;;;15.80;47.90;;;;;;5095740;28;20015;-60
2021/12/29 14:07:41;;;;;;;;;;;15.80;47.90;;;;;;5077860;28;19919;-60
2021/12/29 14:10:07;;;;;;;;;;;15.80;48.00;;;;;;5095568;28;19908;-60
2021/12/29 14:12:35;;;;;;;;;;;15.80;48.00;;;;;;5095495;28;20286;-60
2021/12/29 14:15:02;;;;;;;;;;;15.70;47.90;;;;;;5095163;28;19908;-61
2021/12/29 14:17:27;;;;;;;;;;;15.80;48.00;;;;;;5095418;28;19941;-61